createdAt,value
2018-12-24T00:00:01.000Z,39.27
2018-12-24T00:10:01.000Z,39.562
2018-12-24T00:20:01.000Z,39.677
2018-12-24T00:30:01.000Z,39.656
2018-12-24T00:40:01.000Z,39.654
2018-12-24T00:50:01.000Z,39.706
2018-12-24T01:00:01.000Z,39.758
2018-12-24T01:10:02.000Z,39.864
2018-12-24T01:20:01.000Z,39.926
2018-12-24T01:30:02.000Z,40.01
2018-12-24T01:40:01.000Z,39.953
2018-12-24T01:50:01.000Z,39.995
2018-12-24T02:10:01.000Z,40.099
2018-12-24T02:20:01.000Z,40.151
2018-12-24T02:30:01.000Z,40.224
2018-12-24T02:40:01.000Z,40.114
2018-12-24T02:50:01.000Z,40.209
2018-12-24T03:00:02.000Z,40.251
2018-12-24T03:10:01.000Z,40.271
2018-12-24T03:20:01.000Z,40.323
2018-12-24T03:30:02.000Z,40.247
2018-12-24T03:40:01.000Z,40.34
2018-12-24T03:50:02.000Z,40.338
2018-12-24T04:00:02.000Z,40.401
2018-12-24T04:10:02.000Z,40.431
2018-12-24T04:20:02.000Z,40.441
2018-12-24T04:30:02.000Z,40.557
2018-12-24T04:40:02.000Z,40.641
2018-12-24T04:50:02.000Z,40.639
2018-12-24T05:00:02.000Z,40.563
2018-12-24T05:10:02.000Z,40.53
2018-12-24T05:20:02.000Z,40.26
2018-12-24T05:30:03.000Z,40.11
2018-12-24T05:40:02.000Z,39.97
2018-12-24T05:50:02.000Z,39.767
2018-12-24T06:00:04.000Z,39.658
2018-12-24T06:10:02.000Z,39.486
2018-12-24T06:20:02.000Z,39.238
2018-12-24T06:30:03.000Z,39.238
2018-12-24T06:40:02.000Z,39.087
2018-12-24T06:50:02.000Z,38.948
2018-12-24T07:00:04.000Z,38.904
2018-12-24T07:10:02.000Z,38.689
2018-12-24T07:20:02.000Z,38.529
2018-12-24T07:30:02.000Z,38.571
2018-12-24T07:40:02.000Z,38.43
2018-12-24T07:50:02.000Z,38.259
2018-12-24T08:00:02.000Z,38.184
2018-12-24T08:10:02.000Z,38.087
2018-12-24T08:30:02.000Z,38.835
2018-12-24T08:40:02.000Z,37.461
2018-12-24T08:50:02.000Z,37.288
2018-12-24T09:00:02.000Z,37.134
2018-12-24T09:10:02.000Z,38.398
2018-12-24T09:20:02.000Z,38.031
2018-12-24T09:30:02.000Z,37.869
2018-12-24T09:40:02.000Z,37.502
2018-12-24T09:50:02.000Z,37.827
2018-12-24T10:00:02.000Z,37.571
2018-12-24T10:10:02.000Z,36.923
2018-12-24T10:20:02.000Z,36.82
2018-12-24T10:30:02.000Z,36.989
2018-12-24T10:40:02.000Z,36.073
2018-12-24T10:50:02.000Z,36.339
2018-12-24T11:00:02.000Z,36.564
2018-12-24T11:10:02.000Z,37.433
2018-12-24T11:20:02.000Z,37.792
2018-12-24T11:30:02.000Z,38.199
2018-12-24T11:40:02.000Z,36.701
2018-12-24T11:50:02.000Z,37.327
2018-12-24T12:00:02.000Z,38.225
2018-12-24T12:10:03.000Z,38.585
2018-12-24T12:20:02.000Z,38.903
2018-12-24T12:30:03.000Z,39.297
2018-12-24T12:40:03.000Z,39.681
2018-12-24T12:50:06.000Z,44.326
2018-12-24T13:00:04.000Z,44.937
2018-12-24T13:10:03.000Z,46.154
2018-12-24T13:20:03.000Z,46.643
2018-12-24T13:30:03.000Z,47.377
2018-12-24T13:40:03.000Z,47.634
2018-12-24T13:50:04.000Z,47.371
2018-12-24T14:00:03.000Z,48.643
2018-12-24T14:10:03.000Z,48.877
2018-12-24T14:20:03.000Z,50.539
2018-12-24T14:30:03.000Z,50.12
2018-12-24T14:40:03.000Z,50.374
2018-12-24T14:50:03.000Z,51.081
2018-12-24T15:00:04.000Z,49.868
2018-12-24T15:10:03.000Z,49.572
2018-12-24T15:20:03.000Z,47.883
2018-12-24T15:30:03.000Z,49.097
2018-12-24T15:40:03.000Z,48.063
2018-12-24T15:50:03.000Z,49.758
2018-12-24T16:00:03.000Z,50.033
2018-12-24T16:10:03.000Z,48.803
2018-12-24T16:20:03.000Z,49.602
2018-12-24T16:30:04.000Z,50.125
2018-12-24T16:40:03.000Z,50.548
2018-12-24T16:50:03.000Z,50.585
2018-12-24T17:00:03.000Z,51.582
2018-12-24T17:10:03.000Z,51.895
2018-12-24T17:20:03.000Z,52.247
2018-12-24T17:30:05.000Z,51.926
2018-12-24T17:40:03.000Z,51.843
2018-12-24T17:50:03.000Z,51.611
2018-12-24T18:00:03.000Z,51.716
2018-12-24T18:10:03.000Z,51.349
2018-12-24T18:20:03.000Z,51.74
2018-12-24T18:30:03.000Z,51.665
2018-12-24T18:40:03.000Z,50.755
2018-12-24T18:50:03.000Z,51.306
2018-12-24T19:00:03.000Z,51.77
2018-12-24T19:10:03.000Z,52.023
2018-12-24T19:20:03.000Z,51.991
2018-12-24T19:30:05.000Z,52.248
2018-12-24T19:40:03.000Z,52.333
2018-12-24T19:50:03.000Z,40.017
2018-12-24T20:00:03.000Z,37.391
2018-12-24T20:10:03.000Z,48.769
2018-12-24T20:20:03.000Z,49.219
2018-12-24T20:30:05.000Z,49.73
2018-12-24T20:40:04.000Z,50.134
2018-12-24T20:50:04.000Z,50.284
2018-12-24T21:00:05.000Z,50.73
2018-12-24T21:10:04.000Z,50.078
2018-12-24T21:20:04.000Z,50.267
2018-12-24T21:30:05.000Z,50.209
2018-12-24T21:40:04.000Z,50.291
2018-12-24T21:50:04.000Z,50.188
2018-12-24T22:00:04.000Z,50.33
2018-12-24T22:10:04.000Z,50.074
2018-12-24T22:20:05.000Z,50.088
2018-12-24T22:30:05.000Z,49.647
2018-12-24T22:40:04.000Z,49.67
2018-12-24T22:50:04.000Z,50.216
2018-12-24T23:00:04.000Z,50.107
2018-12-24T23:10:04.000Z,49.903
2018-12-24T23:20:04.000Z,50.535
2018-12-24T23:30:04.000Z,50.324
2018-12-24T23:40:04.000Z,50.42
2018-12-24T23:50:04.000Z,49.429
